createdAt,value
2018-05-31T00:01:23.147Z,7.30
2018-05-31T00:03:50.569Z,6.80
2018-05-31T00:06:21.453Z,6.40
2018-05-31T00:08:49.624Z,7.35
2018-05-31T00:11:17.843Z,7.07
2018-05-31T00:13:46.011Z,7.35
2018-05-31T00:16:14.194Z,6.75
2018-05-31T00:18:42.402Z,7.93
2018-05-31T00:21:10.585Z,6.70
2018-05-31T00:23:38.009Z,6.93
2018-05-31T00:26:05.429Z,7.97
2018-05-31T00:28:32.853Z,8.45
2018-05-31T00:31:00.370Z,7.18
2018-05-31T00:33:28.531Z,7.35
2018-05-31T00:35:56.751Z,7.05
2018-05-31T00:38:24.177Z,8.00
2018-05-31T00:40:51.584Z,7.35
2018-05-31T00:43:19.005Z,6.85
2018-05-31T00:45:46.422Z,7.68
2018-05-31T00:48:13.887Z,6.32
2018-05-31T00:50:42.073Z,6.80
2018-05-31T00:53:09.498Z,7.65
2018-05-31T00:55:48.898Z,6.80
2018-05-31T00:58:16.301Z,7.25
2018-05-31T01:00:43.729Z,7.72
2018-05-31T01:03:11.152Z,8.15
2018-05-31T01:05:38.569Z,8.00
2018-05-31T01:08:05.989Z,8.85
2018-05-31T01:10:33.514Z,7.85
2018-05-31T01:13:01.693Z,8.57
2018-05-31T01:15:29.104Z,7.70
2018-05-31T01:17:56.530Z,8.80
2018-05-31T01:20:24.057Z,10.10
2018-05-31T01:22:51.485Z,10.10
2018-05-31T01:25:18.950Z,9.90
2018-05-31T01:27:47.233Z,11.52
2018-05-31T01:30:14.653Z,8.75
2018-05-31T01:32:42.076Z,9.52
2018-05-31T01:35:09.541Z,8.65
2018-05-31T01:37:37.016Z,8.68
2018-05-31T01:40:05.196Z,9.38
2018-05-31T01:42:32.625Z,8.57
2018-05-31T01:45:00.046Z,8.90
2018-05-31T01:47:27.469Z,9.02
2018-05-31T01:49:56.416Z,9.07
2018-05-31T01:52:24.581Z,7.90
2018-05-31T01:54:52.768Z,8.45
2018-05-31T01:57:20.953Z,7.00
2018-05-31T01:59:49.145Z,7.12
2018-05-31T02:02:17.353Z,6.43
2018-05-31T02:04:45.520Z,7.65
2018-05-31T02:07:13.698Z,7.07
2018-05-31T02:09:41.886Z,5.95
2018-05-31T02:12:10.066Z,6.12
2018-05-31T02:14:38.253Z,5.93
2018-05-31T02:17:06.474Z,5.80
2018-05-31T02:19:34.652Z,4.70
2018-05-31T02:22:02.065Z,4.78
2018-05-31T02:24:29.481Z,5.05
2018-05-31T02:26:57.662Z,4.70
2018-05-31T02:29:25.980Z,4.70
2018-05-31T02:31:54.130Z,5.20
2018-05-31T02:34:22.318Z,4.22
2018-05-31T02:36:50.532Z,3.87
2018-05-31T02:39:17.953Z,4.20
2018-05-31T02:41:45.371Z,4.20
2018-05-31T02:44:12.794Z,4.30
2018-05-31T02:46:40.205Z,4.57
2018-05-31T02:49:07.672Z,4.95
2018-05-31T02:51:35.144Z,4.50
2018-05-31T02:54:02.567Z,4.10
2018-05-31T02:56:30.009Z,3.60
2018-05-31T02:58:57.468Z,3.30
2018-05-31T03:01:25.634Z,3.30
2018-05-31T03:03:53.824Z,3.90
2018-05-31T03:06:22.030Z,4.12
2018-05-31T03:08:49.499Z,3.75
2018-05-31T03:11:17.029Z,3.60
2018-05-31T03:13:44.453Z,3.53
2018-05-31T03:16:11.912Z,3.60
2018-05-31T03:18:39.324Z,4.75
2018-05-31T03:21:06.735Z,4.07
2018-05-31T03:23:34.157Z,3.70
2018-05-31T03:26:01.590Z,3.60
2018-05-31T03:28:29.162Z,4.50
2018-05-31T03:30:57.337Z,4.68
2018-05-31T03:33:24.761Z,4.53
2018-05-31T03:35:52.173Z,4.30
2018-05-31T03:38:19.649Z,4.25
2018-05-31T03:40:47.128Z,4.10
2018-05-31T03:43:15.352Z,4.10
2018-05-31T03:45:42.777Z,4.37
2018-05-31T03:48:10.247Z,3.65
2018-05-31T03:50:37.661Z,4.28
2018-05-31T03:53:05.086Z,4.25
2018-05-31T03:55:32.496Z,4.30
2018-05-31T03:58:00.134Z,4.15
2018-05-31T04:00:28.292Z,4.00
2018-05-31T04:02:56.507Z,4.30
2018-05-31T04:05:24.673Z,4.10
2018-05-31T04:07:52.872Z,4.30
2018-05-31T04:10:20.298Z,4.55
2018-05-31T04:12:48.734Z,4.07
2018-05-31T04:15:16.209Z,4.60
2018-05-31T04:17:44.380Z,4.40
2018-05-31T04:20:12.569Z,4.93
2018-05-31T04:22:40.753Z,4.82
2018-05-31T04:25:08.933Z,4.70
2018-05-31T04:27:37.128Z,5.12
2018-05-31T04:30:05.352Z,4.62
2018-05-31T04:32:32.744Z,4.95
2018-05-31T04:35:00.174Z,4.85
2018-05-31T04:37:27.646Z,4.62
2018-05-31T04:39:55.805Z,5.35
2018-05-31T04:42:24.033Z,4.80
2018-05-31T04:44:51.405Z,4.90
2018-05-31T04:47:18.858Z,5.03
2018-05-31T04:49:46.268Z,5.15
2018-05-31T04:52:13.680Z,4.90
2018-05-31T04:54:41.165Z,4.47
2018-05-31T04:57:09.316Z,4.87
2018-05-31T04:59:37.511Z,5.03
2018-05-31T05:02:05.728Z,5.60
2018-05-31T05:04:33.188Z,5.37
2018-05-31T05:07:00.615Z,4.80
2018-05-31T05:09:28.037Z,5.30
2018-05-31T05:11:55.720Z,4.82
2018-05-31T05:14:23.277Z,4.97
2018-05-31T05:16:50.754Z,5.05
2018-05-31T05:19:18.217Z,5.70
2018-05-31T05:21:45.625Z,4.62
2018-05-31T05:24:13.157Z,5.20
2018-05-31T05:26:40.620Z,5.43
2018-05-31T05:29:08.104Z,4.57
2018-05-31T05:31:36.261Z,5.00
2018-05-31T05:34:04.445Z,5.20
2018-05-31T05:36:32.638Z,4.85
2018-05-31T05:39:00.825Z,4.90
2018-05-31T05:41:29.009Z,5.37
2018-05-31T05:43:57.197Z,6.30
2018-05-31T05:46:25.376Z,4.87
2018-05-31T05:48:52.798Z,6.10
2018-05-31T05:51:20.209Z,4.78
2018-05-31T05:53:47.625Z,5.50
2018-05-31T05:56:15.091Z,5.12
2018-05-31T05:58:43.273Z,5.03
2018-05-31T06:01:10.680Z,5.25
2018-05-31T06:03:38.116Z,4.60
2018-05-31T06:06:06.272Z,5.30
2018-05-31T06:08:34.491Z,4.95
2018-05-31T06:11:02.653Z,5.18
2018-05-31T06:13:30.860Z,5.15
2018-05-31T06:15:58.268Z,5.95
2018-05-31T06:18:25.793Z,6.10
2018-05-31T06:20:53.217Z,5.28
2018-05-31T06:23:20.643Z,5.60
2018-05-31T06:25:48.065Z,5.68
2018-05-31T06:28:15.685Z,4.70
2018-05-31T06:30:43.848Z,4.62
2018-05-31T06:33:12.058Z,5.18
2018-05-31T06:35:40.236Z,5.22
2018-05-31T06:38:07.644Z,5.15
2018-05-31T06:40:35.066Z,5.25
2018-05-31T06:43:03.240Z,5.25
2018-05-31T06:45:31.433Z,5.57
2018-05-31T06:47:59.613Z,5.62
2018-05-31T06:50:27.830Z,5.20
2018-05-31T06:52:55.236Z,5.28
2018-05-31T06:55:22.653Z,5.35
2018-05-31T06:57:50.837Z,5.60
2018-05-31T07:00:19.025Z,5.20
2018-05-31T07:02:47.230Z,4.93
2018-05-31T07:05:14.701Z,4.95
2018-05-31T07:07:42.173Z,5.15
2018-05-31T07:10:10.357Z,4.75
2018-05-31T07:12:37.773Z,5.22
2018-05-31T07:15:05.299Z,5.30
2018-05-31T07:17:32.719Z,5.22
2018-05-31T07:20:01.668Z,4.95
2018-05-31T07:22:29.104Z,5.50
2018-05-31T07:24:56.604Z,5.85
2018-05-31T07:27:24.025Z,5.45
2018-05-31T07:29:51.451Z,6.12
2018-05-31T07:32:18.942Z,5.30
2018-05-31T07:34:46.354Z,5.90
2018-05-31T07:37:14.683Z,5.90
2018-05-31T07:39:42.857Z,5.30
2018-05-31T07:42:11.065Z,5.18
2018-05-31T07:44:38.493Z,5.47
2018-05-31T07:47:05.906Z,5.47
2018-05-31T07:49:33.328Z,5.53
2018-05-31T07:52:00.841Z,5.35
2018-05-31T07:54:28.260Z,5.60
2018-05-31T07:56:55.685Z,6.40
2018-05-31T07:59:23.156Z,6.28
2018-05-31T08:01:51.312Z,5.68
2018-05-31T08:04:18.736Z,5.93
2018-05-31T08:06:46.157Z,7.68
2018-05-31T08:09:14.361Z,6.43
2018-05-31T08:11:41.775Z,6.40
2018-05-31T08:14:09.202Z,6.20
2018-05-31T08:16:36.668Z,6.60
2018-05-31T08:19:04.147Z,6.45
2018-05-31T08:21:31.563Z,6.47
2018-05-31T08:23:58.989Z,6.15
2018-05-31T08:26:26.414Z,5.90
2018-05-31T08:28:53.921Z,5.85
2018-05-31T08:31:21.354Z,6.30
2018-05-31T08:33:48.882Z,6.60
2018-05-31T08:36:16.286Z,6.97
2018-05-31T08:38:43.715Z,7.22
2018-05-31T08:41:11.172Z,7.00
2018-05-31T08:43:38.639Z,6.25
2018-05-31T08:46:06.109Z,7.55
2018-05-31T08:48:33.529Z,6.37
2018-05-31T08:51:01.001Z,6.82
2018-05-31T08:53:28.384Z,7.03
2018-05-31T08:55:55.907Z,7.05
2018-05-31T08:58:23.320Z,7.60
2018-05-31T09:00:50.750Z,6.80
2018-05-31T09:03:18.225Z,6.32
2018-05-31T09:05:45.648Z,6.18
2018-05-31T09:08:13.868Z,6.47
2018-05-31T09:10:41.304Z,7.07
2018-05-31T09:13:08.721Z,6.72
2018-05-31T09:15:36.183Z,6.80
2018-05-31T09:18:03.643Z,6.57
2018-05-31T09:20:31.068Z,6.25
2018-05-31T09:22:58.593Z,6.60
2018-05-31T09:25:26.061Z,6.82
2018-05-31T09:27:53.483Z,6.65
2018-05-31T09:30:20.991Z,6.90
2018-05-31T09:32:48.417Z,6.87
2018-05-31T09:35:15.849Z,6.85
2018-05-31T09:37:43.310Z,6.10
2018-05-31T09:40:10.745Z,6.40
2018-05-31T09:42:38.937Z,6.53
2018-05-31T09:45:07.129Z,6.20
2018-05-31T09:47:35.342Z,6.20
2018-05-31T09:50:02.809Z,6.62
2018-05-31T09:52:30.238Z,6.50
2018-05-31T09:54:57.670Z,7.70
2018-05-31T09:57:25.090Z,7.25
2018-05-31T09:59:53.282Z,7.53
2018-05-31T10:02:21.486Z,6.30
2018-05-31T10:04:48.963Z,7.57
2018-05-31T10:07:16.434Z,8.68
2018-05-31T10:09:43.848Z,6.53
2018-05-31T10:12:11.373Z,7.18
2018-05-31T10:14:38.847Z,6.93
2018-05-31T10:17:06.313Z,6.60
2018-05-31T10:19:33.785Z,6.40
2018-05-31T10:22:02.076Z,6.32
2018-05-31T10:24:29.505Z,6.90
2018-05-31T10:26:56.929Z,6.12
2018-05-31T10:29:24.345Z,7.18
2018-05-31T10:31:52.565Z,6.78
2018-05-31T10:34:19.990Z,5.97
2018-05-31T10:36:47.428Z,6.37
2018-05-31T10:39:14.849Z,5.90
2018-05-31T10:41:43.444Z,6.45
2018-05-31T10:44:11.633Z,6.15
2018-05-31T10:46:39.853Z,5.85
2018-05-31T10:49:07.322Z,6.00
2018-05-31T10:51:34.748Z,6.40
2018-05-31T10:54:02.941Z,5.75
2018-05-31T10:56:31.133Z,6.53
2018-05-31T10:58:59.325Z,6.20
2018-05-31T11:01:27.521Z,6.37
2018-05-31T11:03:55.014Z,6.40
2018-05-31T11:06:22.482Z,6.03
2018-05-31T11:08:49.907Z,6.20
2018-05-31T11:11:17.333Z,6.32
2018-05-31T11:13:44.762Z,6.57
2018-05-31T11:16:12.986Z,6.45
2018-05-31T11:18:40.405Z,6.72
2018-05-31T11:21:07.883Z,6.10
2018-05-31T11:23:36.063Z,7.00
2018-05-31T11:26:04.257Z,6.25
2018-05-31T11:28:32.444Z,7.10
2018-05-31T11:31:00.633Z,6.57
2018-05-31T11:33:28.816Z,6.55
2018-05-31T11:35:57.017Z,5.75
2018-05-31T11:38:25.204Z,6.25
2018-05-31T11:40:53.394Z,6.37
2018-05-31T11:43:20.826Z,5.90
2018-05-31T11:45:48.252Z,6.32
2018-05-31T11:48:15.677Z,5.87
2018-05-31T11:50:43.870Z,5.85
2018-05-31T11:53:12.059Z,6.30
2018-05-31T11:55:40.258Z,5.95
2018-05-31T11:58:08.454Z,6.35
2018-05-31T12:00:35.948Z,5.80
2018-05-31T12:03:03.408Z,6.00
2018-05-31T12:05:30.838Z,6.30
2018-05-31T12:07:58.256Z,5.80
2018-05-31T12:10:26.131Z,6.28
2018-05-31T12:12:53.589Z,5.95
2018-05-31T12:15:21.067Z,6.00
2018-05-31T12:17:48.541Z,5.55
2018-05-31T12:20:15.979Z,6.40
2018-05-31T12:22:44.157Z,5.65
2018-05-31T12:25:12.370Z,5.62
2018-05-31T12:27:39.848Z,6.15
2018-05-31T12:30:07.285Z,5.93
2018-05-31T12:32:35.522Z,6.30
2018-05-31T12:35:02.941Z,5.50
2018-05-31T12:37:31.124Z,5.45
2018-05-31T12:39:58.557Z,6.05
2018-05-31T12:42:26.009Z,5.93
2018-05-31T12:44:53.429Z,6.03
2018-05-31T12:47:20.947Z,6.18
2018-05-31T12:49:48.362Z,5.93
2018-05-31T12:52:15.880Z,5.22
2018-05-31T12:54:43.354Z,5.72
2018-05-31T12:57:10.783Z,5.47
2018-05-31T12:59:38.206Z,5.15
2018-05-31T13:02:05.635Z,5.22
2018-05-31T13:04:33.851Z,5.00
2018-05-31T13:07:01.280Z,5.62
2018-05-31T13:09:28.798Z,5.50
2018-05-31T13:11:59.057Z,5.40
2018-05-31T13:14:26.469Z,4.87
2018-05-31T13:16:54.676Z,5.40
2018-05-31T13:19:22.150Z,4.90
2018-05-31T13:21:50.036Z,5.65
2018-05-31T13:24:17.506Z,5.32
2018-05-31T13:26:44.930Z,4.57
2018-05-31T13:29:12.345Z,5.45
2018-05-31T13:31:39.822Z,5.40
2018-05-31T13:34:07.245Z,4.80
2018-05-31T13:36:35.444Z,5.05
2018-05-31T13:39:03.617Z,5.15
2018-05-31T13:41:31.036Z,4.82
2018-05-31T13:43:58.456Z,4.55
2018-05-31T13:46:26.689Z,4.87
2018-05-31T13:48:54.160Z,4.62
2018-05-31T13:51:21.602Z,4.65
2018-05-31T13:53:49.791Z,4.70
2018-05-31T13:56:18.081Z,5.12
2018-05-31T13:58:45.501Z,4.47
2018-05-31T14:01:12.932Z,5.15
2018-05-31T14:03:40.361Z,4.45
2018-05-31T14:06:07.790Z,4.47
2018-05-31T14:08:35.202Z,4.37
2018-05-31T14:11:02.638Z,4.97
2018-05-31T14:13:30.067Z,4.00
2018-05-31T14:15:57.538Z,4.12
2018-05-31T14:18:25.017Z,4.22
2018-05-31T14:20:52.471Z,5.07
2018-05-31T14:23:20.990Z,4.28
2018-05-31T14:25:48.406Z,4.22
2018-05-31T14:28:15.920Z,4.20
2018-05-31T14:30:43.403Z,3.72
2018-05-31T14:33:10.862Z,3.47
2018-05-31T14:35:38.293Z,4.07
2018-05-31T14:38:05.721Z,4.30
2018-05-31T14:40:33.142Z,4.20
2018-05-31T14:43:01.329Z,4.00
2018-05-31T14:45:29.520Z,4.15
2018-05-31T14:47:57.704Z,3.80
2018-05-31T14:50:25.214Z,4.05
2018-05-31T14:52:52.638Z,3.58
2018-05-31T14:55:20.821Z,3.50
2018-05-31T14:57:48.248Z,4.07
2018-05-31T15:00:15.676Z,4.15
2018-05-31T15:02:43.888Z,4.68
2018-05-31T15:05:11.369Z,4.35
2018-05-31T15:07:38.800Z,4.90
2018-05-31T15:10:07.026Z,4.30
2018-05-31T15:12:34.501Z,5.10
2018-05-31T15:15:01.925Z,5.07
2018-05-31T15:17:29.355Z,5.32
2018-05-31T15:19:56.800Z,4.35
2018-05-31T15:22:24.474Z,5.80
2018-05-31T15:24:52.665Z,4.82
2018-05-31T15:27:20.824Z,4.43
2018-05-31T15:29:49.020Z,5.25
2018-05-31T15:32:17.229Z,5.28
2018-05-31T15:34:44.648Z,5.00
2018-05-31T15:37:12.180Z,4.68
2018-05-31T15:39:39.641Z,5.43
2018-05-31T15:42:07.131Z,5.53
2018-05-31T15:44:34.537Z,5.35
2018-05-31T15:47:02.044Z,5.32
2018-05-31T15:49:29.468Z,5.47
2018-05-31T15:51:56.989Z,5.93
2018-05-31T15:54:24.464Z,5.47
2018-05-31T15:56:51.925Z,5.45
2018-05-31T15:59:19.415Z,5.43
2018-05-31T16:01:46.865Z,5.78
2018-05-31T16:04:15.061Z,5.25
2018-05-31T16:06:42.484Z,5.82
2018-05-31T16:09:09.913Z,5.22
2018-05-31T16:11:37.340Z,6.12
2018-05-31T16:14:05.541Z,5.35
2018-05-31T16:16:32.974Z,5.45
2018-05-31T16:19:00.396Z,5.05
2018-05-31T16:21:27.856Z,5.10
2018-05-31T16:23:55.308Z,5.85
2018-05-31T16:26:23.527Z,6.12
2018-05-31T16:28:50.940Z,6.82
2018-05-31T16:31:18.369Z,6.90
2018-05-31T16:33:45.787Z,5.90
2018-05-31T16:36:13.298Z,5.60
2018-05-31T16:38:40.723Z,6.90
2018-05-31T16:41:08.241Z,5.35
2018-05-31T16:43:35.664Z,5.65
2018-05-31T16:46:03.087Z,6.40
2018-05-31T16:48:30.504Z,6.10
2018-05-31T16:50:58.025Z,5.45
2018-05-31T16:53:25.448Z,5.50
2018-05-31T16:55:53.658Z,5.60
2018-05-31T16:58:22.169Z,5.65
2018-05-31T17:00:50.353Z,5.20
2018-05-31T17:03:17.781Z,5.85
2018-05-31T17:05:45.211Z,5.20
2018-05-31T17:08:12.637Z,5.37
2018-05-31T17:10:40.824Z,6.32
2018-05-31T17:13:09.029Z,5.65
2018-05-31T17:15:36.454Z,5.20
2018-05-31T17:18:03.880Z,5.30
2018-05-31T17:20:31.350Z,6.45
2018-05-31T17:22:58.776Z,6.00
2018-05-31T17:25:26.197Z,6.30
2018-05-31T17:27:53.625Z,5.30
2018-05-31T17:30:21.840Z,5.72
2018-05-31T17:32:49.303Z,5.90
2018-05-31T17:35:16.727Z,5.57
2018-05-31T17:37:44.155Z,6.12
2018-05-31T17:40:11.565Z,5.25
2018-05-31T17:42:38.988Z,5.60
2018-05-31T17:45:06.412Z,5.70
2018-05-31T17:47:33.922Z,5.80
2018-05-31T17:50:01.337Z,5.20
2018-05-31T17:52:28.765Z,6.22
2018-05-31T17:54:56.235Z,5.87
2018-05-31T17:57:23.752Z,5.68
2018-05-31T17:59:51.168Z,6.25
2018-05-31T18:02:18.641Z,5.78
2018-05-31T18:04:46.052Z,5.60
2018-05-31T18:07:13.587Z,4.95
2018-05-31T18:09:41.006Z,5.68
2018-05-31T18:12:08.517Z,5.68
2018-05-31T18:14:35.998Z,5.15
2018-05-31T18:17:03.469Z,5.40
2018-05-31T18:19:30.894Z,5.10
2018-05-31T18:21:58.315Z,5.10
2018-05-31T18:24:26.101Z,4.97
2018-05-31T18:26:53.521Z,4.70
2018-05-31T18:29:21.714Z,4.80
2018-05-31T18:31:49.900Z,4.57
2018-05-31T18:34:18.077Z,4.78
2018-05-31T18:36:46.273Z,5.45
2018-05-31T18:39:14.457Z,5.55
2018-05-31T18:41:42.644Z,5.60
2018-05-31T18:44:10.872Z,5.60
2018-05-31T18:46:38.293Z,5.30
2018-05-31T18:49:05.799Z,5.72
2018-05-31T18:51:33.223Z,5.72
2018-05-31T18:54:01.463Z,5.18
2018-05-31T18:56:28.889Z,6.12
2018-05-31T18:58:56.313Z,5.75
2018-05-31T19:01:23.732Z,6.40
2018-05-31T19:03:51.918Z,5.32
2018-05-31T19:06:19.341Z,5.87
2018-05-31T19:08:46.805Z,5.40
2018-05-31T19:11:14.225Z,5.75
2018-05-31T19:13:47.432Z,6.65
2018-05-31T19:16:15.650Z,5.90
2018-05-31T19:18:48.697Z,5.60
2018-05-31T19:21:16.116Z,6.10
2018-05-31T19:23:43.590Z,5.47
2018-05-31T19:26:10.961Z,5.47
2018-05-31T19:28:38.389Z,6.03
2018-05-31T19:31:11.880Z,6.03
2018-05-31T19:33:39.296Z,6.45
2018-05-31T19:36:13.239Z,5.90
2018-05-31T19:38:40.667Z,5.97
2018-05-31T19:41:08.178Z,6.45
2018-05-31T19:43:41.340Z,6.22
2018-05-31T19:46:08.757Z,6.68
2018-05-31T19:48:36.181Z,7.10
2018-05-31T19:51:05.098Z,6.10
2018-05-31T19:53:39.045Z,5.72
2018-05-31T19:56:06.463Z,5.78
2018-05-31T19:58:39.525Z,6.35
2018-05-31T20:01:12.591Z,5.95
2018-05-31T20:03:40.813Z,7.18
2018-05-31T20:06:08.275Z,7.15
2018-05-31T20:08:35.697Z,5.45
2018-05-31T20:11:03.218Z,6.30
2018-05-31T20:13:30.641Z,6.65
2018-05-31T20:15:58.152Z,6.12
2018-05-31T20:18:25.633Z,6.10
2018-05-31T20:20:53.132Z,6.55
2018-05-31T20:23:20.477Z,6.57
2018-05-31T20:25:47.945Z,6.35
2018-05-31T20:28:15.362Z,6.50
2018-05-31T20:30:42.857Z,6.80
2018-05-31T20:33:10.246Z,7.40
2018-05-31T20:35:37.753Z,6.43
2018-05-31T20:38:05.164Z,6.97
2018-05-31T20:40:33.350Z,6.30
2018-05-31T20:43:01.536Z,6.45
2018-05-31T20:45:29.750Z,6.70
2018-05-31T20:47:57.229Z,6.35
2018-05-31T20:50:24.644Z,6.70
2018-05-31T20:53:05.329Z,6.93
2018-05-31T20:55:32.805Z,7.53
2018-05-31T20:58:00.229Z,7.40
2018-05-31T21:00:27.745Z,7.70
2018-05-31T21:02:55.222Z,7.90
2018-05-31T21:05:23.403Z,7.82
2018-05-31T21:07:51.576Z,8.77
2018-05-31T21:10:19.752Z,8.70
2018-05-31T21:12:47.966Z,7.22
2018-05-31T21:15:15.385Z,8.45
2018-05-31T21:17:42.900Z,7.20
2018-05-31T21:20:10.313Z,7.95
2018-05-31T21:22:37.850Z,8.60
2018-05-31T21:25:05.309Z,7.22
2018-05-31T21:27:32.725Z,7.75
2018-05-31T21:30:00.253Z,8.02
2018-05-31T21:32:27.733Z,7.82
2018-05-31T21:34:55.896Z,8.23
2018-05-31T21:37:24.096Z,7.80
2018-05-31T21:39:51.569Z,8.05
2018-05-31T21:42:19.045Z,7.78
2018-05-31T21:44:46.509Z,7.75
2018-05-31T21:47:14.011Z,7.45
2018-05-31T21:49:41.401Z,7.82
2018-05-31T21:52:08.816Z,8.32
2018-05-31T21:54:36.301Z,7.80
2018-05-31T21:57:03.723Z,8.65
2018-05-31T21:59:31.341Z,7.97
2018-05-31T22:01:59.497Z,7.25
2018-05-31T22:04:27.709Z,8.07
2018-05-31T22:06:55.184Z,7.22
2018-05-31T22:09:23.360Z,7.80
2018-05-31T22:11:50.769Z,8.15
2018-05-31T22:14:18.208Z,7.62
2018-05-31T22:16:45.613Z,9.00
2018-05-31T22:19:13.083Z,8.23
2018-05-31T22:21:40.463Z,8.50
2018-05-31T22:24:07.877Z,8.18
2018-05-31T22:26:35.296Z,8.95
2018-05-31T22:29:02.827Z,7.07
2018-05-31T22:31:30.980Z,8.27
2018-05-31T22:33:59.198Z,8.77
2018-05-31T22:36:27.362Z,8.35
2018-05-31T22:38:55.540Z,8.63
2018-05-31T22:41:23.864Z,9.13
2018-05-31T22:43:52.049Z,7.25
2018-05-31T22:46:20.235Z,8.38
2018-05-31T22:48:48.404Z,9.43
2018-05-31T22:51:16.589Z,8.18
2018-05-31T22:53:44.772Z,6.93
2018-05-31T22:56:12.981Z,7.65
2018-05-31T22:58:40.452Z,7.93
2018-05-31T23:01:07.937Z,8.10
2018-05-31T23:03:35.385Z,8.50
2018-05-31T23:06:02.813Z,8.05
2018-05-31T23:08:35.986Z,8.65
2018-05-31T23:11:03.393Z,9.40
2018-05-31T23:13:30.904Z,8.80
2018-05-31T23:15:58.321Z,8.45
2018-05-31T23:18:25.748Z,8.98
2018-05-31T23:20:53.224Z,8.55
2018-05-31T23:23:21.439Z,9.05
2018-05-31T23:25:49.559Z,8.55
2018-05-31T23:28:17.779Z,9.57
2018-05-31T23:30:45.249Z,7.87
2018-05-31T23:33:13.416Z,9.55
2018-05-31T23:35:41.657Z,8.48
2018-05-31T23:38:09.789Z,7.85
2018-05-31T23:40:37.977Z,8.45
2018-05-31T23:43:06.186Z,8.00
2018-05-31T23:45:34.349Z,7.97
2018-05-31T23:48:02.549Z,9.57
2018-05-31T23:50:30.026Z,8.93
2018-05-31T23:52:57.446Z,8.88
2018-05-31T23:55:24.872Z,10.00
2018-05-31T23:57:52.294Z,10.95
